Time;durP1;ratioP1;P1;durP2;ratioP2;P2;SDS_P1;SDS_P2;PMS_P1;PMS_P2;Temp;Humidity;BMP_temperature;BMP_pressure;BME280_temperature;BME280_humidity;BME280_pressure;Samples;Min_cycle;Max_cycle;Signal;HPM_P1;HPM_P2
2022/08/02 00:01:55;;;;;;;6.72;3.15;;;16.80;88.00;;;;;;4992333;28;20123;-77
2022/08/02 00:04:21;;;;;;;2.97;2.33;;;16.70;88.30;;;;;;4983088;28;20109;-77
2022/08/02 00:06:46;;;;;;;3.35;2.20;;;16.70;89.20;;;;;;4981052;28;20030;-77
2022/08/02 00:09:13;;;;;;;3.60;2.50;;;16.60;90.00;;;;;;5004837;28;20064;-77
2022/08/02 00:11:39;;;;;;;7.53;3.40;;;16.70;90.10;;;;;;4973018;28;20037;-77
2022/08/02 00:14:04;;;;;;;3.15;2.38;;;16.60;90.90;;;;;;4981488;28;20129;-77
2022/08/02 00:16:30;;;;;;;3.55;3.17;;;16.60;91.40;;;;;;4997690;28;20026;-77
2022/08/02 00:18:56;;;;;;;5.57;3.03;;;16.50;91.20;;;;;;4996830;28;20109;-77
2022/08/02 00:21:21;;;;;;;3.53;2.25;;;16.40;91.30;;;;;;4969489;28;20030;-77
2022/08/02 00:23:47;;;;;;;3.83;2.83;;;16.40;92.40;;;;;;5000254;28;20036;-77
2022/08/02 00:26:12;;;;;;;4.50;3.25;;;16.50;92.40;;;;;;4972378;28;20026;-77
2022/08/02 00:28:38;;;;;;;6.32;3.20;;;16.40;93.00;;;;;;4993859;28;20027;-77
2022/08/02 00:31:03;;;;;;;6.30;2.90;;;16.30;92.60;;;;;;4990612;28;20040;-77
2022/08/02 00:33:29;;;;;;;4.15;2.40;;;16.30;93.30;;;;;;4989911;28;20144;-77
2022/08/02 00:35:54;;;;;;;4.00;3.08;;;16.50;94.30;;;;;;5009635;28;20701;-77
2022/08/02 00:38:20;;;;;;;3.67;2.28;;;16.40;93.10;;;;;;5007398;28;20106;-77
2022/08/02 00:40:49;;;;;;;4.25;2.72;;;16.30;93.70;;;;;;5011756;28;20041;-77
2022/08/02 00:43:15;;;;;;;3.50;2.83;;;16.30;93.90;;;;;;4994439;28;20513;-77
2022/08/02 00:45:40;;;;;;;3.60;2.80;;;16.20;93.60;;;;;;5029284;28;20064;-77
2022/08/02 00:48:07;;;;;;;4.60;2.75;;;16.20;95.00;;;;;;5012483;28;20025;-77
2022/08/02 00:50:33;;;;;;;5.45;3.20;;;16.30;94.90;;;;;;4998005;28;20500;-77
2022/08/02 00:52:59;;;;;;;3.08;2.13;;;16.30;95.40;;;;;;5020978;28;20578;-77
2022/08/02 00:55:25;;;;;;;6.28;2.30;;;16.30;95.60;;;;;;5032363;28;20034;-77
2022/08/02 00:57:51;;;;;;;4.38;3.20;;;16.10;95.10;;;;;;4992245;28;20446;-77
2022/08/02 01:00:16;;;;;;;5.20;3.65;;;16.10;96.00;;;;;;4996352;28;20241;-76
2022/08/02 01:02:42;;;;;;;7.97;3.67;;;15.90;95.50;;;;;;4988824;28;20080;-77
2022/08/02 01:05:08;;;;;;;4.90;3.97;;;15.90;95.40;;;;;;4975954;28;20025;-78
2022/08/02 01:07:34;;;;;;;6.90;3.72;;;15.80;96.40;;;;;;4989755;28;20030;-78
2022/08/02 01:09:59;;;;;;;9.25;3.47;;;15.70;95.80;;;;;;4980871;28;20037;-78
2022/08/02 01:12:26;;;;;;;7.20;4.05;;;15.70;95.40;;;;;;4976811;28;20117;-78
2022/08/02 01:14:52;;;;;;;7.10;3.70;;;15.60;96.50;;;;;;5027000;28;20032;-78
2022/08/02 01:17:38;;;;;;;7.18;3.08;;;15.60;96.40;;;;;;4993490;28;20054;-78
2022/08/02 01:20:16;;;;;;;4.05;2.45;;;15.70;96.00;;;;;;5008342;28;20034;-78
2022/08/02 01:23:00;;;;;;;6.95;3.92;;;15.60;95.50;;;;;;5011760;28;20036;-77
2022/08/02 01:25:44;;;;;;;9.63;4.18;;;15.60;96.40;;;;;;5018111;28;20033;-78
2022/08/02 01:28:35;;;;;;;3.80;3.08;;;15.50;96.30;;;;;;5016607;28;20080;-78
2022/08/02 01:31:15;;;;;;;5.00;3.10;;;15.50;96.00;;;;;;5029970;28;20038;-78
2022/08/02 01:33:45;;;;;;;8.57;3.95;;;15.60;96.00;;;;;;5018900;28;20033;-78
2022/08/02 01:36:12;;;;;;;10.27;4.47;;;15.60;96.10;;;;;;5012342;28;20029;-78
2022/08/02 01:38:39;;;;;;;5.03;3.90;;;15.40;96.70;;;;;;5012242;28;20573;-78
2022/08/02 01:41:04;;;;;;;6.63;4.57;;;15.40;97.00;;;;;;4993039;28;20034;-78
2022/08/02 01:43:30;;;;;;;11.05;5.18;;;15.30;96.40;;;;;;5012512;28;20030;-78
2022/08/02 01:45:56;;;;;;;10.25;4.82;;;15.20;98.90;;;;;;5014049;28;20076;-78
2022/08/02 01:48:22;;;;;;;5.30;2.97;;;15.10;99.30;;;;;;4994874;28;20512;-78
2022/08/02 01:50:47;;;;;;;4.43;2.72;;;15.30;97.40;;;;;;5012601;28;20074;-78
2022/08/02 01:53:13;;;;;;;7.72;3.47;;;15.40;97.10;;;;;;4996691;28;20489;-78
2022/08/02 01:55:42;;;;;;;12.07;4.00;;;15.40;96.80;;;;;;4996928;28;20032;-78
2022/08/02 01:58:07;;;;;;;4.88;3.08;;;15.30;98.50;;;;;;5013762;28;20037;-78
2022/08/02 02:00:37;;;;;;;3.85;3.45;;;15.30;97.10;;;;;;5020725;28;20392;-78
2022/08/02 02:03:03;;;;;;;5.65;3.85;;;15.30;96.70;;;;;;4996961;28;20509;-78
2022/08/02 02:05:29;;;;;;;8.63;4.22;;;15.20;96.50;;;;;;4994935;28;20136;-78
2022/08/02 02:07:56;;;;;;;4.45;4.05;;;15.20;96.30;;;;;;5003678;28;20033;-78
2022/08/02 02:10:31;;;;;;;6.07;4.20;;;15.00;98.20;;;;;;5011118;28;20461;-78
2022/08/02 02:12:59;;;;;;;7.13;4.20;;;15.00;99.70;;;;;;5013275;28;20104;-78
2022/08/02 02:15:24;;;;;;;6.78;4.47;;;14.90;99.50;;;;;;4993363;28;20517;-78
2022/08/02 02:17:50;;;;;;;5.90;4.30;;;14.90;98.20;;;;;;4992331;28;20113;-78
2022/08/02 02:20:17;;;;;;;7.65;4.90;;;14.80;98.40;;;;;;5011736;28;20564;-78
2022/08/02 02:22:43;;;;;;;7.10;5.45;;;14.70;99.30;;;;;;4987777;28;20500;-78
2022/08/02 02:25:09;;;;;;;10.88;5.70;;;14.60;99.90;;;;;;4993671;28;20033;-78
2022/08/02 02:27:35;;;;;;;8.15;5.65;;;14.60;99.90;;;;;;4993491;28;20641;-78
2022/08/02 02:30:01;;;;;;;8.50;5.63;;;14.60;99.90;;;;;;4994993;28;20037;-78
2022/08/02 02:32:27;;;;;;;8.45;5.03;;;14.60;99.90;;;;;;4976777;28;20029;-78
2022/08/02 02:34:52;;;;;;;6.30;4.97;;;14.60;99.90;;;;;;5016405;28;20037;-78
2022/08/02 02:37:19;;;;;;;8.82;5.30;;;14.60;99.90;;;;;;4980729;28;20425;-78
2022/08/02 02:39:44;;;;;;;5.70;3.97;;;14.50;99.90;;;;;;5011414;28;20030;-78
2022/08/02 02:42:12;;;;;;;10.95;5.13;;;14.50;98.90;;;;;;4992450;28;20029;-77
2022/08/02 02:44:38;;;;;;;11.43;6.47;;;14.70;98.60;;;;;;4987697;28;20022;-77
2022/08/02 02:47:03;;;;;;;7.00;5.60;;;14.60;98.80;;;;;;5030162;28;20088;-77
2022/08/02 02:49:30;;;;;;;7.88;4.90;;;14.40;99.90;;;;;;4992434;28;20319;-77
2022/08/02 02:51:56;;;;;;;6.57;4.82;;;14.50;99.10;;;;;;5000288;28;20045;-77
2022/08/02 02:54:21;;;;;;;10.38;5.15;;;14.50;98.50;;;;;;4995404;28;20080;-77
2022/08/02 02:56:47;;;;;;;7.85;5.43;;;14.50;99.20;;;;;;5014543;28;20510;-77
2022/08/02 02:59:14;;;;;;;5.30;3.85;;;14.30;99.90;;;;;;4979642;28;20037;-77
2022/08/02 03:01:39;;;;;;;4.28;3.50;;;14.40;99.90;;;;;;5008485;28;20449;-77
2022/08/02 03:04:06;;;;;;;4.57;4.10;;;14.60;99.30;;;;;;4996577;28;20033;-77
2022/08/02 03:06:32;;;;;;;3.67;3.20;;;14.60;99.30;;;;;;5012453;28;20053;-77
2022/08/02 03:08:58;;;;;;;5.32;3.78;;;14.40;98.90;;;;;;4995222;28;20026;-77
2022/08/02 03:11:24;;;;;;;4.57;3.17;;;14.40;99.00;;;;;;5001320;28;20310;-77
2022/08/02 03:13:49;;;;;;;5.68;3.50;;;14.40;99.30;;;;;;5010767;28;20057;-77
2022/08/02 03:16:15;;;;;;;8.93;3.45;;;14.50;99.90;;;;;;4977723;28;20049;-77
2022/08/02 03:18:42;;;;;;;6.78;3.30;;;14.60;99.90;;;;;;5015164;28;20040;-77
2022/08/02 03:21:10;;;;;;;4.25;3.85;;;14.50;99.60;;;;;;5006372;28;20033;-77
2022/08/02 03:23:36;;;;;;;5.38;4.03;;;14.40;99.90;;;;;;4997299;28;20121;-77
2022/08/02 03:26:01;;;;;;;3.30;3.00;;;14.30;99.90;;;;;;5020180;28;20661;-77
2022/08/02 03:28:27;;;;;;;6.95;3.97;;;14.20;99.70;;;;;;5012400;28;20120;-77
2022/08/02 03:30:53;;;;;;;7.28;4.18;;;14.30;99.90;;;;;;5015609;28;20056;-77
2022/08/02 03:33:19;;;;;;;3.60;3.30;;;14.20;99.90;;;;;;5015494;28;20386;-77
2022/08/02 03:35:46;;;;;;;3.20;2.55;;;14.20;99.90;;;;;;5006725;28;20486;-77
2022/08/02 03:38:12;;;;;;;5.32;3.05;;;14.20;99.90;;;;;;4978523;28;20382;-77
2022/08/02 03:40:37;;;;;;;7.05;4.80;;;14.20;99.90;;;;;;5015624;28;20160;-77
2022/08/02 03:43:03;;;;;;;4.50;3.38;;;14.10;99.90;;;;;;5027922;28;20146;-78
2022/08/02 03:45:29;;;;;;;4.53;3.67;;;14.00;99.90;;;;;;5005286;28;20022;-78
2022/08/02 03:47:55;;;;;;;3.95;3.60;;;14.00;99.90;;;;;;5007494;28;20026;-77
2022/08/02 03:50:21;;;;;;;3.42;3.13;;;14.00;99.90;;;;;;4994513;28;20041;-77
2022/08/02 03:52:47;;;;;;;4.40;3.78;;;14.00;99.90;;;;;;5012655;28;20044;-77
2022/08/02 03:55:13;;;;;;;7.78;4.18;;;14.00;99.90;;;;;;5009842;28;20037;-78
2022/08/02 03:57:39;;;;;;;5.68;4.22;;;14.00;99.90;;;;;;5015390;28;20497;-77
2022/08/02 04:00:06;;;;;;;8.57;4.90;;;14.10;99.90;;;;;;5015171;28;20030;-77
2022/08/02 04:02:31;;;;;;;6.35;5.40;;;14.00;99.90;;;;;;5010424;28;20037;-77
2022/08/02 04:04:57;;;;;;;7.78;5.50;;;14.00;99.90;;;;;;4977662;28;20040;-77
2022/08/02 04:07:22;;;;;;;4.60;4.20;;;13.90;99.90;;;;;;4995541;28;20065;-77
2022/08/02 04:09:48;;;;;;;7.43;4.93;;;14.00;99.90;;;;;;5029420;28;20037;-77
2022/08/02 04:12:14;;;;;;;4.60;3.60;;;14.00;99.90;;;;;;5026025;28;20383;-77
2022/08/02 04:14:39;;;;;;;4.70;3.83;;;14.00;99.90;;;;;;5026167;28;20038;-77
2022/08/02 04:17:09;;;;;;;8.05;4.78;;;13.90;99.90;;;;;;5030972;28;20037;-77
2022/08/02 04:19:39;;;;;;;10.18;5.93;;;13.90;99.90;;;;;;5008003;28;20037;-77
2022/08/02 04:22:06;;;;;;;9.40;5.93;;;13.80;99.90;;;;;;5013228;28;20045;-77
2022/08/02 04:24:38;;;;;;;8.27;4.97;;;13.80;99.90;;;;;;4984180;28;20557;-77
2022/08/02 04:27:06;;;;;;;9.68;5.40;;;13.80;99.90;;;;;;5003349;28;20084;-77
2022/08/02 04:29:33;;;;;;;7.35;5.22;;;13.70;99.90;;;;;;4993757;28;20044;-77
2022/08/02 04:31:58;;;;;;;9.32;5.30;;;13.70;99.90;;;;;;4992119;28;20053;-78
2022/08/02 04:34:24;;;;;;;9.52;6.50;;;13.70;99.90;;;;;;4976807;28;20042;-77
2022/08/02 04:36:49;;;;;;;13.30;7.07;;;13.70;99.90;;;;;;5014399;28;20026;-77
2022/08/02 04:39:15;;;;;;;7.65;5.97;;;13.80;99.90;;;;;;4997294;28;20087;-77
2022/08/02 04:41:45;;;;;;;13.52;5.85;;;13.80;99.90;;;;;;4990584;28;20026;-78
2022/08/02 04:44:11;;;;;;;7.47;6.38;;;13.90;99.90;;;;;;4993730;28;20496;-78
2022/08/02 04:46:37;;;;;;;10.63;7.55;;;14.00;99.90;;;;;;4998128;28;20022;-77
2022/08/02 04:49:02;;;;;;;13.73;7.90;;;14.00;99.90;;;;;;5007661;28;20026;-77
2022/08/02 04:51:28;;;;;;;9.68;7.28;;;14.10;99.90;;;;;;4995109;28;20485;-78
2022/08/02 04:53:54;;;;;;;15.75;6.95;;;14.20;99.90;;;;;;5011841;28;20849;-75
2022/08/02 04:56:19;;;;;;;8.90;6.82;;;14.30;99.90;;;;;;4990920;28;20482;-75
2022/08/02 04:58:45;;;;;;;10.68;7.35;;;14.40;99.90;;;;;;5018335;28;20033;-75
2022/08/02 05:01:10;;;;;;;8.77;7.22;;;14.50;99.90;;;;;;4991405;28;20503;-75
2022/08/02 05:03:36;;;;;;;9.95;7.78;;;14.50;99.90;;;;;;5013430;28;20056;-75
2022/08/02 05:06:01;;;;;;;12.88;8.07;;;14.60;99.90;;;;;;4994022;28;20053;-76
2022/08/02 05:08:27;;;;;;;13.38;8.88;;;14.60;99.90;;;;;;4975788;28;20034;-76
2022/08/02 05:10:52;;;;;;;10.88;7.65;;;14.70;99.90;;;;;;5011468;28;20026;-76
2022/08/02 05:13:18;;;;;;;10.40;7.10;;;14.70;99.90;;;;;;4990939;28;20044;-76
2022/08/02 05:15:43;;;;;;;8.73;7.18;;;14.70;99.90;;;;;;5028993;28;20036;-78
2022/08/02 05:18:09;;;;;;;10.32;7.55;;;14.80;99.90;;;;;;5025459;28;20065;-75
2022/08/02 05:20:35;;;;;;;11.15;7.50;;;14.90;99.90;;;;;;5013655;28;20030;-76
2022/08/02 05:23:02;;;;;;;10.80;8.43;;;15.00;99.90;;;;;;4993494;28;20118;-78
2022/08/02 05:25:27;;;;;;;10.98;8.10;;;15.20;99.90;;;;;;4989583;28;20084;-77
2022/08/02 05:27:56;;;;;;;10.90;7.68;;;15.30;99.90;;;;;;5008783;28;20792;-77
2022/08/02 05:30:22;;;;;;;11.13;8.05;;;15.30;99.90;;;;;;4982268;28;20033;-77
2022/08/02 05:32:49;;;;;;;11.52;7.88;;;15.40;99.90;;;;;;4987233;28;20046;-77
2022/08/02 05:35:18;;;;;;;10.30;7.50;;;15.60;99.90;;;;;;4994884;28;20083;-77
2022/08/02 05:37:44;;;;;;;10.05;7.90;;;15.80;99.90;;;;;;4990593;28;20088;-77
2022/08/02 05:40:10;;;;;;;13.60;8.98;;;15.90;99.90;;;;;;4994868;28;20477;-77
2022/08/02 05:42:36;;;;;;;12.85;7.20;;;16.10;99.90;;;;;;4998266;28;20042;-77
2022/08/02 05:45:02;;;;;;;12.52;7.70;;;16.30;99.90;;;;;;4995010;28;20030;-77
2022/08/02 05:47:27;;;;;;;7.90;7.10;;;16.50;99.90;;;;;;4992066;28;20558;-77
2022/08/02 05:49:53;;;;;;;9.70;7.40;;;16.60;99.90;;;;;;4996026;28;20057;-77
2022/08/02 05:52:19;;;;;;;12.02;7.22;;;16.80;99.90;;;;;;5029173;28;20037;-77
2022/08/02 05:54:50;;;;;;;8.43;6.90;;;17.00;99.90;;;;;;4988197;28;20026;-77
2022/08/02 05:57:16;;;;;;;8.75;6.68;;;17.10;99.90;;;;;;5009817;28;20038;-77
2022/08/02 05:59:57;;;;;;;13.23;7.22;;;17.10;99.90;;;;;;5012220;28;20633;-77
2022/08/02 06:02:33;;;;;;;8.90;7.32;;;17.20;99.90;;;;;;4993871;28;20034;-77
2022/08/02 06:05:03;;;;;;;9.15;6.82;;;17.30;99.90;;;;;;5006879;28;20034;-77
2022/08/02 06:07:28;;;;;;;10.35;6.35;;;17.50;99.90;;;;;;5009345;28;20152;-77
2022/08/02 06:09:54;;;;;;;12.70;6.00;;;17.70;99.90;;;;;;4993616;28;20098;-77
2022/08/02 06:12:19;;;;;;;10.48;7.32;;;17.90;99.90;;;;;;5015266;28;20088;-77
2022/08/02 06:14:45;;;;;;;10.13;5.78;;;18.00;99.90;;;;;;5014348;28;20114;-78
2022/08/02 06:17:10;;;;;;;12.85;6.30;;;18.20;99.90;;;;;;5020772;28;20539;-77
2022/08/02 06:19:37;;;;;;;10.80;5.68;;;18.40;99.90;;;;;;5019766;28;20026;-77
2022/08/02 06:22:13;;;;;;;9.57;6.28;;;18.60;99.90;;;;;;4996451;28;20320;-77
2022/08/02 06:24:43;;;;;;;7.18;5.70;;;18.80;99.90;;;;;;5017900;28;20030;-77
2022/08/02 06:27:13;;;;;;;8.52;5.72;;;19.10;99.90;;;;;;4981754;28;20034;-77
2022/08/02 06:29:40;;;;;;;10.15;5.72;;;19.40;99.90;;;;;;4996671;28;20035;-77
2022/08/02 06:32:06;;;;;;;8.73;3.97;;;19.50;99.90;;;;;;4962629;28;20097;-77
2022/08/02 06:34:35;;;;;;;5.97;3.17;;;19.70;99.90;;;;;;4978827;28;20133;-77
2022/08/02 06:37:26;;;;;;;7.57;3.47;;;19.70;99.30;;;;;;4964934;28;20030;-76
2022/08/02 06:39:58;;;;;;;6.93;4.35;;;19.80;97.80;;;;;;4984967;28;20473;-76
2022/08/02 06:42:28;;;;;;;9.88;5.97;;;20.00;98.90;;;;;;5008892;28;20048;-76
2022/08/02 06:44:54;;;;;;;3.80;2.95;;;20.20;99.90;;;;;;5004336;28;20030;-76
2022/08/02 06:47:19;;;;;;;14.68;5.55;;;20.30;97.50;;;;;;5013990;28;20042;-76
2022/08/02 06:49:45;;;;;;;9.00;5.15;;;20.50;99.10;;;;;;5004145;28;20371;-76
2022/08/02 06:52:10;;;;;;;10.43;3.63;;;20.60;97.20;;;;;;4996425;28;20486;-76
2022/08/02 06:54:37;;;;;;;7.78;5.05;;;20.80;97.60;;;;;;5021125;28;20038;-76
2022/08/02 06:57:03;;;;;;;3.95;3.60;;;21.10;99.90;;;;;;5006233;28;20038;-76
2022/08/02 06:59:29;;;;;;;9.63;4.57;;;21.40;99.30;;;;;;4990241;28;20047;-76
2022/08/02 07:01:56;;;;;;;6.88;3.45;;;21.50;99.90;;;;;;4958782;28;20109;-78
2022/08/02 07:04:21;;;;;;;9.35;4.85;;;21.70;97.10;;;;;;5003316;28;20030;-78
2022/08/02 07:06:47;;;;;;;6.88;3.53;;;21.80;97.70;;;;;;5005293;28;20083;-78
2022/08/02 07:09:13;;;;;;;10.50;4.65;;;21.90;99.90;;;;;;4997610;28;20057;-78
2022/08/02 07:11:38;;;;;;;9.23;4.60;;;22.40;98.20;;;;;;4975322;28;20030;-76
2022/08/02 07:14:04;;;;;;;5.47;3.33;;;22.40;96.80;;;;;;5001200;28;20038;-76
2022/08/02 07:16:29;;;;;;;7.70;3.22;;;22.60;99.40;;;;;;4987684;28;20061;-77
2022/08/02 07:18:55;;;;;;;6.47;3.25;;;22.70;96.70;;;;;;4997599;28;20037;-77
2022/08/02 07:21:20;;;;;;;8.75;3.58;;;22.80;96.40;;;;;;5003442;28;20032;-77
2022/08/02 07:23:46;;;;;;;6.32;3.40;;;23.00;98.60;;;;;;5005197;28;20113;-77
2022/08/02 07:26:12;;;;;;;7.82;2.50;;;23.00;95.80;;;;;;4998841;28;20030;-77
2022/08/02 07:28:37;;;;;;;4.38;3.10;;;23.20;95.60;;;;;;5002077;28;20414;-77
2022/08/02 07:31:03;;;;;;;5.30;2.78;;;23.30;95.70;;;;;;4989246;28;20032;-77
2022/08/02 07:33:28;;;;;;;6.63;2.90;;;23.60;95.60;;;;;;5022571;28;20037;-77
2022/08/02 07:35:56;;;;;;;4.07;2.70;;;23.60;94.40;;;;;;5008601;28;20032;-77
2022/08/02 07:38:23;;;;;;;3.50;2.03;;;23.70;94.30;;;;;;5000333;28;20081;-77
2022/08/02 07:40:49;;;;;;;4.85;2.75;;;24.00;94.00;;;;;;5002800;28;20046;-78
2022/08/02 07:43:15;;;;;;;5.70;2.97;;;24.10;93.60;;;;;;5020876;28;20183;-78
2022/08/02 07:45:41;;;;;;;4.70;2.65;;;24.30;92.80;;;;;;4998555;28;20405;-77
2022/08/02 07:48:07;;;;;;;5.72;2.70;;;24.40;93.40;;;;;;4981404;28;20041;-77
2022/08/02 07:50:33;;;;;;;2.92;2.20;;;24.50;92.20;;;;;;5015184;28;20072;-76
2022/08/02 07:52:58;;;;;;;7.45;3.08;;;24.70;92.50;;;;;;4993683;28;20046;-78
2022/08/02 07:55:24;;;;;;;4.82;2.58;;;24.80;91.70;;;;;;4975993;28;20049;-77
2022/08/02 07:57:51;;;;;;;4.85;2.60;;;25.10;91.30;;;;;;5006392;28;20122;-77
2022/08/02 08:00:16;;;;;;;2.33;2.00;;;25.20;90.90;;;;;;4970221;28;20026;-77
2022/08/02 08:02:42;;;;;;;5.63;2.13;;;25.30;90.70;;;;;;5014540;28;20033;-77
2022/08/02 08:05:08;;;;;;;4.38;2.10;;;25.60;90.30;;;;;;4998502;28;20520;-77
2022/08/02 08:07:33;;;;;;;4.03;1.95;;;25.80;89.40;;;;;;4997914;28;20034;-77
2022/08/02 08:09:59;;;;;;;6.50;2.35;;;25.90;89.70;;;;;;4998401;28;20585;-79
2022/08/02 08:12:25;;;;;;;5.72;2.53;;;25.90;87.60;;;;;;4975798;28;20426;-76
2022/08/02 08:14:51;;;;;;;4.25;1.67;;;26.20;85.70;;;;;;4999143;28;20031;-79
2022/08/02 08:17:16;;;;;;;3.00;2.20;;;26.30;89.10;;;;;;5008786;28;20042;-79
2022/08/02 08:19:42;;;;;;;3.30;2.03;;;26.50;84.20;;;;;;4992492;28;20128;-76
2022/08/02 08:22:07;;;;;;;3.05;1.67;;;26.70;85.80;;;;;;4995865;28;20041;-77
2022/08/02 08:24:33;;;;;;;2.25;1.55;;;26.90;89.10;;;;;;4992501;28;20485;-77
2022/08/02 08:26:59;;;;;;;5.38;1.90;;;27.20;79.70;;;;;;5007569;28;20478;-77
2022/08/02 08:29:25;;;;;;;2.35;1.63;;;27.30;80.20;;;;;;5006322;28;20039;-77
2022/08/02 08:31:50;;;;;;;1.25;1.15;;;27.40;79.00;;;;;;4996745;28;20406;-77
2022/08/02 08:34:16;;;;;;;7.05;1.50;;;27.20;74.40;;;;;;5002303;28;20030;-78
2022/08/02 08:36:42;;;;;;;3.05;1.40;;;27.30;75.40;;;;;;5012620;28;20377;-78
2022/08/02 08:39:08;;;;;;;2.70;1.45;;;27.70;75.70;;;;;;4983574;28;20029;-78
2022/08/02 08:41:34;;;;;;;3.25;1.48;;;27.70;75.20;;;;;;4990447;28;20026;-78
2022/08/02 08:44:00;;;;;;;3.35;1.50;;;27.90;73.50;;;;;;4979572;28;20498;-79
2022/08/02 08:46:29;;;;;;;4.22;1.20;;;28.00;72.50;;;;;;4979953;28;20061;-79
2022/08/02 08:48:59;;;;;;;4.30;1.58;;;28.10;69.20;;;;;;4960545;28;20029;-79
2022/08/02 08:51:29;;;;;;;3.15;1.20;;;28.10;68.00;;;;;;5008385;28;20140;-80
2022/08/02 08:53:55;;;;;;;2.65;1.40;;;28.40;71.60;;;;;;5000656;28;20057;-80
2022/08/02 08:56:21;;;;;;;3.63;1.80;;;28.50;69.00;;;;;;4979440;28;20050;-80
2022/08/02 08:58:47;;;;;;;1.95;1.35;;;28.50;70.70;;;;;;4960616;28;20061;-80
2022/08/02 09:01:14;;;;;;;2.03;1.33;;;28.60;66.40;;;;;;5009705;28;20041;-80
2022/08/02 09:03:39;;;;;;;2.90;1.48;;;28.70;67.10;;;;;;5024850;28;20030;-80
2022/08/02 09:06:05;;;;;;;5.60;1.67;;;28.90;66.50;;;;;;4993375;28;20504;-80
2022/08/02 09:08:31;;;;;;;2.63;1.58;;;29.00;66.90;;;;;;4976149;28;20505;-81
2022/08/02 09:10:56;;;;;;;3.33;1.95;;;29.10;66.80;;;;;;4960755;28;20500;-81
2022/08/02 09:13:28;;;;;;;1.70;1.60;;;29.40;66.30;;;;;;4976429;28;20041;-81
2022/08/02 09:16:11;;;;;;;2.58;1.83;;;29.10;65.40;;;;;;5004599;28;20152;-81
2022/08/02 09:18:38;;;;;;;2.75;1.80;;;28.90;64.50;;;;;;4963818;28;20114;-81
2022/08/02 09:21:07;;;;;;;3.42;2.22;;;29.10;66.60;;;;;;5011580;28;20044;-82
2022/08/02 09:23:39;;;;;;;6.05;2.50;;;29.40;65.30;;;;;;4988979;28;20063;-82
2022/08/02 09:26:06;;;;;;;3.17;2.15;;;29.40;65.40;;;;;;5004616;28;20512;-82
2022/08/02 09:28:34;;;;;;;5.55;2.10;;;29.60;66.50;;;;;;5023824;28;20060;-82
2022/08/02 09:31:16;;;;;;;4.22;2.00;;;29.80;70.30;;;;;;5006109;28;20038;-82
2022/08/02 09:33:43;;;;;;;2.67;1.88;;;30.10;67.20;;;;;;4977729;28;20046;-82
2022/08/02 09:36:11;;;;;;;3.97;1.85;;;30.40;66.80;;;;;;5001684;28;20084;-83
2022/08/02 09:38:37;;;;;;;1.77;1.67;;;30.40;65.90;;;;;;4978352;28;20034;-83
2022/08/02 09:41:03;;;;;;;2.75;2.00;;;30.50;66.10;;;;;;5012638;28;20056;-83
2022/08/02 09:43:39;;;;;;;2.67;2.00;;;30.60;67.60;;;;;;4985625;28;20045;-83
2022/08/02 09:46:16;;;;;;;1.85;1.70;;;30.70;63.40;;;;;;5001235;28;20034;-83
2022/08/02 09:49:05;;;;;;;2.65;1.95;;;30.60;67.50;;;;;;4990715;28;20085;-83
2022/08/02 09:51:31;;;;;;;2.33;1.88;;;30.90;63.60;;;;;;4976760;28;20049;-83
2022/08/02 09:53:58;;;;;;;4.95;1.85;;;30.90;62.60;;;;;;4965591;28;20027;-83
2022/08/02 09:56:25;;;;;;;4.43;2.55;;;31.20;65.90;;;;;;4978506;28;20040;-83
2022/08/02 09:58:52;;;;;;;4.60;2.33;;;31.30;66.20;;;;;;4986200;28;20030;-83
2022/08/02 10:01:18;;;;;;;2.13;1.92;;;31.30;65.60;;;;;;5002695;28;20224;-83
2022/08/02 10:03:55;;;;;;;2.85;1.95;;;31.20;65.10;;;;;;4983987;28;20058;-83
2022/08/02 10:06:20;;;;;;;3.67;2.30;;;31.50;63.90;;;;;;4967352;28;20066;-83
2022/08/02 10:08:46;;;;;;;2.20;2.05;;;31.50;62.80;;;;;;5003407;28;20457;-82
2022/08/02 10:11:12;;;;;;;2.22;1.95;;;31.50;62.10;;;;;;4967425;28;20030;-82
2022/08/02 10:13:37;;;;;;;3.75;2.85;;;31.60;64.30;;;;;;5003252;28;20121;-81
2022/08/02 10:16:05;;;;;;;4.05;2.33;;;31.80;64.60;;;;;;4998347;28;20038;-81
2022/08/02 10:18:30;;;;;;;2.90;2.35;;;32.00;61.80;;;;;;4996913;28;20042;-81
2022/08/02 10:20:56;;;;;;;3.50;2.13;;;32.00;63.50;;;;;;5000663;28;20026;-80
2022/08/02 10:23:22;;;;;;;5.07;2.65;;;32.10;63.10;;;;;;4999282;28;20042;-80
2022/08/02 10:25:48;;;;;;;2.65;2.35;;;32.10;64.10;;;;;;4976279;28;20682;-79
2022/08/02 10:28:14;;;;;;;2.70;2.22;;;32.10;64.00;;;;;;4998003;28;20089;-79
2022/08/02 10:30:41;;;;;;;5.10;3.10;;;32.20;64.10;;;;;;4989054;28;20426;-79
2022/08/02 10:33:07;;;;;;;3.97;2.22;;;32.10;61.30;;;;;;4991882;28;20051;-79
2022/08/02 10:35:35;;;;;;;3.03;2.38;;;32.20;60.00;;;;;;4967049;28;20035;-79
2022/08/02 10:38:02;;;;;;;3.53;2.38;;;32.10;59.10;;;;;;4986074;28;20041;-79
2022/08/02 10:40:44;;;;;;;3.15;2.28;;;32.10;59.60;;;;;;4991001;28;20053;-79
2022/08/02 10:43:09;;;;;;;3.90;2.90;;;32.50;60.20;;;;;;4996788;28;20036;-78
2022/08/02 10:45:35;;;;;;;4.18;2.28;;;32.80;62.60;;;;;;4963334;28;20038;-78
2022/08/02 10:48:08;;;;;;;5.15;2.65;;;32.90;63.10;;;;;;4983839;28;20034;-79
2022/08/02 10:50:46;;;;;;;3.03;2.28;;;33.10;62.40;;;;;;5006539;28;20121;-78
2022/08/02 10:53:22;;;;;;;4.13;1.80;;;33.20;61.40;;;;;;5003966;28;20049;-78
2022/08/02 10:55:50;;;;;;;2.28;2.03;;;33.50;60.40;;;;;;4985489;28;20042;-78
2022/08/02 10:58:18;;;;;;;6.03;2.70;;;33.70;60.50;;;;;;4967083;28;20505;-78
2022/08/02 11:00:43;;;;;;;2.47;2.30;;;33.90;58.20;;;;;;4992944;28;20455;-79
2022/08/02 11:03:27;;;;;;;5.00;2.63;;;34.00;57.00;;;;;;4998371;28;20184;-78
2022/08/02 11:06:08;;;;;;;2.83;2.28;;;34.10;55.60;;;;;;5008161;28;20018;-78
2022/08/02 11:08:34;;;;;;;4.20;2.42;;;34.30;55.40;;;;;;4988652;28;20037;-78
2022/08/02 11:11:01;;;;;;;2.35;2.15;;;34.30;58.50;;;;;;4962010;28;20325;-78
2022/08/02 11:13:28;;;;;;;3.67;2.30;;;34.40;58.90;;;;;;5010836;28;20034;-78
2022/08/02 11:15:55;;;;;;;3.58;2.78;;;34.60;58.00;;;;;;4969544;28;20133;-78
2022/08/02 11:18:21;;;;;;;3.28;2.17;;;34.60;58.00;;;;;;4994399;28;20518;-77
2022/08/02 11:20:58;;;;;;;2.58;2.38;;;34.50;57.70;;;;;;4976086;28;20041;-78
2022/08/02 11:23:33;;;;;;;3.05;2.08;;;34.50;57.80;;;;;;4992768;28;20385;-77
2022/08/02 11:25:59;;;;;;;4.60;2.28;;;34.40;57.40;;;;;;5010614;28;20025;-76
2022/08/02 11:28:24;;;;;;;4.53;2.70;;;34.40;57.10;;;;;;5003889;28;20418;-79
2022/08/02 11:30:57;;;;;;;2.45;2.25;;;34.30;57.40;;;;;;5004408;28;20033;-75
2022/08/02 11:33:29;;;;;;;6.97;2.35;;;34.40;58.10;;;;;;4980443;28;20038;-76
2022/08/02 11:35:58;;;;;;;2.72;1.83;;;34.60;57.80;;;;;;4964584;28;20453;-76
2022/08/02 11:38:24;;;;;;;2.65;1.65;;;34.60;57.90;;;;;;4989540;28;20044;-78
2022/08/02 11:40:49;;;;;;;3.15;1.77;;;34.70;55.60;;;;;;5004505;28;20037;-77
2022/08/02 11:43:23;;;;;;;2.78;1.70;;;35.00;56.10;;;;;;4981531;28;20034;-77
2022/08/02 11:45:49;;;;;;;5.70;1.90;;;35.20;55.50;;;;;;5003679;28;20033;-77
2022/08/02 11:48:35;;;;;;;1.98;1.48;;;35.20;55.30;;;;;;4964609;28;20045;-78
2022/08/02 11:51:16;;;;;;;1.58;1.48;;;35.30;54.20;;;;;;4981365;28;20038;-77
2022/08/02 11:53:50;;;;;;;2.38;1.73;;;35.40;53.90;;;;;;4993970;28;20317;-77
2022/08/02 11:56:16;;;;;;;7.13;1.80;;;35.50;54.20;;;;;;4981444;28;20498;-77
2022/08/02 11:59:05;;;;;;;1.50;1.40;;;35.50;52.50;;;;;;4979291;28;20116;-77
2022/08/02 12:01:31;;;;;;;1.77;1.67;;;35.70;53.40;;;;;;4979065;28;20042;-77
2022/08/02 12:03:59;;;;;;;1.40;1.30;;;35.60;54.10;;;;;;4981610;28;20104;-77
2022/08/02 12:06:27;;;;;;;1.55;1.45;;;36.00;53.00;;;;;;5013615;28;20046;-77
2022/08/02 12:08:58;;;;;;;2.05;1.58;;;35.90;52.50;;;;;;4980534;28;20061;-77
2022/08/02 12:11:24;;;;;;;2.75;1.70;;;35.40;51.40;;;;;;4996888;28;20489;-78
2022/08/02 12:13:49;;;;;;;3.40;1.30;;;35.70;52.30;;;;;;4990579;28;20070;-77
2022/08/02 12:19:18;;;;;;;2.67;1.42;;;35.50;51.20;;;;;;4973084;28;20462;-76
2022/08/02 12:21:47;;;;;;;3.97;1.73;;;35.60;52.80;;;;;;4990934;28;20034;-76
2022/08/02 12:24:13;;;;;;;1.52;1.42;;;35.50;50.60;;;;;;4974193;28;20026;-77
2022/08/02 12:26:46;;;;;;;3.20;2.08;;;35.70;51.60;;;;;;4980831;28;20379;-78
2022/08/02 12:29:11;;;;;;;3.30;1.50;;;35.50;49.60;;;;;;5001229;28;20425;-77
2022/08/02 12:31:46;;;;;;;4.32;2.38;;;35.20;51.70;;;;;;5022057;28;20110;-77
2022/08/02 12:34:17;;;;;;;3.55;1.60;;;35.40;52.00;;;;;;5003654;28;20395;-77
2022/08/02 12:37:00;;;;;;;1.52;1.38;;;35.50;51.50;;;;;;4978339;28;20041;-77
2022/08/02 12:39:37;;;;;;;2.67;1.95;;;35.50;52.40;;;;;;5015114;28;20041;-77
2022/08/02 12:42:04;;;;;;;1.35;1.20;;;35.70;50.60;;;;;;5006685;28;20061;-77
2022/08/02 12:44:29;;;;;;;2.00;1.50;;;35.70;50.70;;;;;;4994558;28;20379;-77
2022/08/02 12:47:02;;;;;;;2.72;1.48;;;35.80;50.30;;;;;;4990046;28;20310;-76
2022/08/02 12:49:28;;;;;;;3.67;1.25;;;35.80;50.20;;;;;;4986050;28;20045;-77
2022/08/02 12:51:54;;;;;;;1.63;1.52;;;35.90;49.90;;;;;;5000905;28;20095;-77